McLeod, MT (59052)

1:59 AM MST on March 03, 2015 (GMT -0700)
Mission | Change Station
CLOSE
Current Station
Airport
Location: Livingston,
Elevation: 4656 ft
Nearby Weather Stations
Active Advisory: Winter Storm Warning

Elev 4656 ft 45.70 °N, 110.44 °W | Updated 6 minutes ago

Snow
Snow
14 °F
Feels Like -1 °F
N
15
Wind Variable Wind from East

Today
High -- | Low -- °F
--% Chance of Precip.
Yesterday
High -- | Low -- °F
Precip. -- in
6:56 AM 6:10 PM
Waxing Gibbous, 95% visible
Pressure 30.10 in
Visibility 4.0 miles
Clouds Overcast 4000 ft
Windchill -1 °F
Dew Point 8 °F
Humidity 77%
Rainfall 0.00 in
Snow Depth Not available.
UV 0 out of 12
Pollen .30 out of 12
Air Quality Not available.
Flu Activity Not available.
METAR KLVM 030853Z AUTO 10013KT 4SM -SN OVC040 M10/M13 A2999 RMK AO2 SLP192 P0000 60000 T11001133 51019

More Conditions Fewer Conditions

Pressure 30.10 in
Visibility 4.0 miles
Clouds Overcast 4000 ft
Windchill -1 °F
Dew Point 8 °F
Humidity 77%
Rainfall 0.00 in
Snow Depth Not available.
UV 0 out of 12
Pollen .30 out of 12
Air Quality Not available.
Flu Activity Not available.
METAR KLVM 030853Z AUTO 10013KT 4SM -SN OVC040 M10/M13 A2999 RMK AO2 SLP192 P0000 60000 T11001133 51019

More Conditions Fewer Conditions

10-Day Weather Forecast

Almanac

Astronomy

Mar. 03, 2015 Rise Set
Actual Time
Civil Twilight
Nautical Twilight
Astronomical Twilight
Moon
Length of Visible Light
Length of Day
Tomorrow will be .
, % of the Moon is Illuminated

Today's Extremes

State Highs State Lows

Community

WunderPhotos

Upload Photos

1,802,075 photos uploaded!

WunderBlogs® & News

Nearby

Air Quality

  Air Quality AQ Index Pollutant
Not available.

Snow Depth

Station Depth Elevation

Earthquake Activity

City Distance Mag. Time & Date
Minimum magnitude displayed is 2.5.

Coastal Water Temperatures

Place Temperature

Nearby Weather Stations

Winter Storm Warning
Statement as of 2:51 PM MST on March 02, 2015

... Winter Storm Warning remains in effect from 6 PM this evening
to noon MST Tuesday...

A Winter Storm Warning for snow and blowing snow remains in
effect from 6 PM this evening to noon MST Tuesday.

* Timing... this evening through noon on Tuesday

* impacts... hazardous driving conditions on area roadways.

* Snow accumulation... 6 to 12 inches on north facing slopes.

* Winds... north at 20 to 30 mph.

* Wind chill values... 15 to 25 below zero.

Precautionary/preparedness actions...

People in the back country should be prepared for falling
temperatures and dangerous wind chills. Travel may become very
hazardous or impossible on mountain roads.